Time;durP1;ratioP1;P1;durP2;ratioP2;P2;SDS_P1;SDS_P2;PMS_P1;PMS_P2;Temp;Humidity;BMP_temperature;BMP_pressure;BME280_temperature;BME280_humidity;BME280_pressure;Samples;Min_cycle;Max_cycle;Signal;HPM_P1;HPM_P2
2021/06/09 00:01:27;;;;;;;20.75;12.13;;;16.70;94.00;;;;;;4939036;29;20368;-91
2021/06/09 00:03:54;;;;;;;20.90;12.52;;;16.70;94.00;;;;;;4955179;29;20039;-90
2021/06/09 00:06:19;;;;;;;23.27;14.10;;;16.70;94.00;;;;;;4938177;29;20020;-92
2021/06/09 00:08:45;;;;;;;21.20;12.75;;;16.60;94.00;;;;;;4938645;29;20546;-92
2021/06/09 00:11:11;;;;;;;22.88;13.85;;;16.70;94.10;;;;;;4938472;29;20126;-91
2021/06/09 00:13:37;;;;;;;20.48;13.57;;;16.70;94.10;;;;;;4938177;29;20031;-91
2021/06/09 00:16:07;;;;;;;22.88;13.07;;;16.60;94.10;;;;;;4938089;29;20027;-91
2021/06/09 00:18:33;;;;;;;21.55;12.93;;;16.60;94.10;;;;;;4938584;29;20031;-91
2021/06/09 00:20:58;;;;;;;23.10;12.80;;;16.60;94.20;;;;;;4938586;29;20436;-91
2021/06/09 00:23:29;;;;;;;19.63;12.63;;;16.60;94.20;;;;;;4938501;29;20538;-91
2021/06/09 00:25:57;;;;;;;22.63;13.75;;;16.60;94.10;;;;;;4938080;29;20039;-91
2021/06/09 00:28:22;;;;;;;23.88;14.02;;;16.60;94.10;;;;;;4955267;29;20023;-91
2021/06/09 00:30:49;;;;;;;25.80;14.18;;;16.50;94.10;;;;;;4938174;29;20035;-91
2021/06/09 00:33:15;;;;;;;19.80;12.82;;;16.60;94.20;;;;;;4938580;29;20487;-91
2021/06/09 00:35:41;;;;;;;23.83;14.07;;;16.70;94.20;;;;;;4937956;29;20033;-91
2021/06/09 00:38:07;;;;;;;25.23;14.32;;;16.60;94.20;;;;;;4955235;29;20024;-90
2021/06/09 00:40:33;;;;;;;23.92;13.23;;;16.60;94.20;;;;;;4957038;28;20082;-91
2021/06/09 00:43:13;;;;;;;23.33;13.73;;;16.60;94.20;;;;;;4939713;29;20476;-90
2021/06/09 00:45:45;;;;;;;20.20;14.15;;;16.60;94.20;;;;;;4956635;29;20102;-90
2021/06/09 00:48:11;;;;;;;22.05;13.27;;;16.60;94.20;;;;;;4936568;29;20027;-90
2021/06/09 00:50:39;;;;;;;27.40;13.85;;;16.60;94.20;;;;;;4953998;29;20034;-89
2021/06/09 00:55:51;;;;;;;19.95;13.18;;;16.60;94.20;;;;;;4952775;29;20039;-91
2021/06/09 00:58:18;;;;;;;21.83;13.60;;;16.60;94.50;;;;;;4938239;29;20023;-91
2021/06/09 01:00:44;;;;;;;20.17;13.27;;;16.60;94.20;;;;;;4955286;29;20046;-91
2021/06/09 01:03:10;;;;;;;26.35;13.90;;;16.60;94.20;;;;;;4954699;29;20036;-92
2021/06/09 01:05:36;;;;;;;25.05;13.55;;;16.60;94.20;;;;;;4937712;29;20484;-92
2021/06/09 01:08:02;;;;;;;25.98;13.63;;;16.60;94.20;;;;;;4937829;29;20468;-92
2021/06/09 01:10:28;;;;;;;28.05;13.57;;;16.60;94.20;;;;;;4937530;29;20023;-91
2021/06/09 01:12:56;;;;;;;21.95;13.27;;;16.60;94.20;;;;;;4937489;29;20040;-91
2021/06/09 01:15:22;;;;;;;25.55;14.02;;;16.50;94.10;;;;;;4954657;29;20165;-91
2021/06/09 01:17:47;;;;;;;23.17;13.20;;;16.50;94.20;;;;;;4937383;29;20110;-91
2021/06/09 01:20:13;;;;;;;23.50;14.32;;;16.60;94.20;;;;;;4969779;28;20042;-91
2021/06/09 01:22:39;;;;;;;23.25;13.40;;;16.50;94.20;;;;;;4937186;29;20488;-91
2021/06/09 01:25:06;;;;;;;24.67;14.05;;;16.60;94.20;;;;;;4937474;29;20070;-91
2021/06/09 01:27:31;;;;;;;23.52;13.48;;;16.50;94.20;;;;;;4937353;29;20419;-91
2021/06/09 01:29:59;;;;;;;27.90;15.75;;;16.50;94.20;;;;;;4937553;29;20024;-91
2021/06/09 01:32:26;;;;;;;25.13;14.43;;;16.50;94.20;;;;;;4937829;29;20031;-94
2021/06/09 01:34:52;;;;;;;27.98;14.30;;;16.50;94.20;;;;;;4938061;29;20078;-94
2021/06/09 01:37:19;;;;;;;28.50;14.48;;;16.40;94.20;;;;;;4938232;29;20050;-93
2021/06/09 01:39:45;;;;;;;25.80;14.13;;;16.50;94.20;;;;;;4938174;29;20023;-93
2021/06/09 01:42:11;;;;;;;29.08;15.20;;;16.50;94.20;;;;;;4940756;29;20023;-94
2021/06/09 01:44:38;;;;;;;27.38;14.80;;;16.40;94.10;;;;;;4938001;29;20447;-94
2021/06/09 01:47:04;;;;;;;25.40;14.27;;;16.40;94.10;;;;;;4953689;29;20475;-93
2021/06/09 01:49:30;;;;;;;29.67;15.63;;;16.50;94.20;;;;;;4937918;29;20041;-94
2021/06/09 01:51:56;;;;;;;30.33;15.30;;;16.40;94.20;;;;;;4937689;29;20043;-93
2021/06/09 01:54:23;;;;;;;30.67;15.73;;;16.40;94.30;;;;;;4937783;29;20546;-93
2021/06/09 01:56:49;;;;;;;26.55;15.15;;;16.40;94.20;;;;;;4937500;29;20027;-93
2021/06/09 01:59:17;;;;;;;30.80;15.88;;;16.40;94.20;;;;;;4937595;29;20459;-93
2021/06/09 02:01:46;;;;;;;30.23;15.90;;;16.40;94.30;;;;;;4935420;29;20039;-93
2021/06/09 02:04:12;;;;;;;33.78;15.60;;;16.40;94.20;;;;;;4937699;29;20159;-94
2021/06/09 02:06:40;;;;;;;29.33;15.68;;;16.50;94.40;;;;;;4937600;29;20174;-93
2021/06/09 02:09:07;;;;;;;28.20;15.73;;;16.40;94.30;;;;;;4957060;28;20027;-95
2021/06/09 02:11:33;;;;;;;28.35;15.63;;;16.50;94.30;;;;;;4940739;29;20046;-92
2021/06/09 02:14:00;;;;;;;30.48;16.42;;;16.50;94.40;;;;;;4957506;29;20491;-92
2021/06/09 02:16:34;;;;;;;26.00;15.52;;;16.50;94.40;;;;;;4957429;29;20383;-92
2021/06/09 02:19:00;;;;;;;23.50;14.87;;;16.60;94.70;;;;;;4940559;29;20042;-92
2021/06/09 02:21:25;;;;;;;23.90;14.40;;;16.50;94.40;;;;;;4939801;29;20271;-89
2021/06/09 02:23:51;;;;;;;22.13;14.15;;;16.60;94.40;;;;;;4940148;29;20046;-91
2021/06/09 02:26:18;;;;;;;19.27;13.27;;;16.60;94.50;;;;;;4955947;28;20035;-91
2021/06/09 02:28:44;;;;;;;21.67;13.75;;;16.60;94.40;;;;;;4940298;29;20114;-91
2021/06/09 02:31:12;;;;;;;18.92;13.40;;;16.70;94.40;;;;;;4940174;29;20547;-91
2021/06/09 02:33:38;;;;;;;20.08;13.23;;;16.70;94.40;;;;;;4957039;29;20472;-91
2021/06/09 02:36:06;;;;;;;19.58;13.73;;;16.70;94.40;;;;;;4940308;29;20030;-92
2021/06/09 02:38:35;;;;;;;20.52;12.45;;;16.70;94.40;;;;;;4956419;28;20023;-92
2021/06/09 02:41:01;;;;;;;20.88;13.93;;;16.80;94.40;;;;;;4940266;29;20501;-92
2021/06/09 02:43:33;;;;;;;20.85;12.50;;;16.70;94.40;;;;;;4956415;28;20110;-92
2021/06/09 02:46:26;;;;;;;19.00;12.77;;;16.80;94.50;;;;;;4940144;29;20061;-92
2021/06/09 02:49:04;;;;;;;22.42;13.55;;;16.80;94.50;;;;;;4970758;28;20122;-91
2021/06/09 02:51:52;;;;;;;19.20;12.68;;;16.80;94.50;;;;;;4936895;29;20023;-92
2021/06/09 02:54:48;;;;;;;19.98;12.68;;;16.90;94.60;;;;;;4936735;29;20037;-91
2021/06/09 02:57:35;;;;;;;18.25;12.70;;;16.90;94.60;;;;;;4954308;29;20055;-90
2021/06/09 03:00:14;;;;;;;17.02;11.88;;;17.00;94.50;;;;;;4955926;28;20034;-91
2021/06/09 03:03:08;;;;;;;22.67;12.20;;;17.00;94.60;;;;;;4940026;29;20027;-91
2021/06/09 03:06:01;;;;;;;19.50;11.85;;;17.00;94.60;;;;;;4923422;29;20043;-92
2021/06/09 03:08:47;;;;;;;21.80;14.20;;;17.00;94.50;;;;;;4926938;29;20107;-91
2021/06/09 03:11:34;;;;;;;24.98;16.60;;;17.00;94.50;;;;;;4918700;29;20118;-91
2021/06/09 03:17:06;;;;;;;27.75;18.88;;;17.00;94.60;;;;;;4923587;29;20099;-90
2021/06/09 03:19:37;;;;;;;24.33;16.48;;;17.10;94.60;;;;;;4919370;29;20040;-90
2021/06/09 03:22:31;;;;;;;22.85;14.52;;;17.20;94.70;;;;;;4918156;29;20035;-90
2021/06/09 03:24:58;;;;;;;18.13;12.57;;;17.20;94.60;;;;;;4918027;29;20178;-90
2021/06/09 03:27:49;;;;;;;19.45;13.05;;;17.20;94.50;;;;;;4918093;29;20016;-90
2021/06/09 03:30:15;;;;;;;19.42;12.18;;;17.20;94.50;;;;;;4950073;28;20043;-90
2021/06/09 03:32:55;;;;;;;24.30;14.30;;;17.30;94.60;;;;;;4919117;29;20121;-90
2021/06/09 03:35:22;;;;;;;20.60;13.93;;;17.30;94.60;;;;;;4919027;29;20024;-91
2021/06/09 03:37:54;;;;;;;21.35;14.18;;;17.30;94.30;;;;;;4919021;29;20028;-91
2021/06/09 03:40:25;;;;;;;24.40;13.73;;;17.30;94.60;;;;;;4949930;28;20016;-90
2021/06/09 03:42:54;;;;;;;19.60;13.50;;;17.40;94.60;;;;;;4923906;29;20082;-92
2021/06/09 03:45:24;;;;;;;20.98;13.73;;;17.40;94.60;;;;;;4956595;28;20024;-92
2021/06/09 03:47:51;;;;;;;22.35;14.05;;;17.40;94.60;;;;;;4951581;28;20033;-91
2021/06/09 03:50:18;;;;;;;23.00;15.00;;;17.50;94.50;;;;;;4913039;29;20114;-91
2021/06/09 03:52:47;;;;;;;21.38;15.00;;;17.50;94.60;;;;;;4918773;29;20036;-91
2021/06/09 03:55:14;;;;;;;20.50;14.07;;;17.50;94.60;;;;;;4949804;28;20480;-91
2021/06/09 03:57:41;;;;;;;23.10;13.93;;;17.50;94.60;;;;;;4954862;28;20063;-93
2021/06/09 04:00:07;;;;;;;22.02;14.48;;;17.50;94.50;;;;;;4949981;28;20028;-92
2021/06/09 04:02:42;;;;;;;21.45;14.07;;;17.50;94.50;;;;;;4933412;29;20042;-92
2021/06/09 04:05:09;;;;;;;22.15;15.23;;;17.60;94.90;;;;;;4950958;28;20071;-94
2021/06/09 04:07:37;;;;;;;21.92;14.88;;;17.60;94.60;;;;;;4936160;29;20042;-95
2021/06/09 04:10:04;;;;;;;23.00;14.20;;;17.60;94.50;;;;;;4935999;29;20495;-91
2021/06/09 04:12:31;;;;;;;21.13;14.80;;;17.60;94.50;;;;;;4934918;29;20028;-91
2021/06/09 04:15:00;;;;;;;21.85;14.45;;;17.60;94.50;;;;;;4935200;29;20082;-91
2021/06/09 04:17:27;;;;;;;19.15;13.48;;;17.60;94.30;;;;;;4934900;29;20054;-92
2021/06/09 04:19:57;;;;;;;20.88;14.10;;;17.70;94.50;;;;;;4951384;29;20098;-92
2021/06/09 04:22:24;;;;;;;20.23;13.68;;;17.60;94.50;;;;;;4933921;29;20034;-92
2021/06/09 04:24:51;;;;;;;20.90;14.20;;;17.60;94.60;;;;;;4935295;29;20023;-92
2021/06/09 04:27:23;;;;;;;20.90;14.13;;;17.70;94.60;;;;;;4935378;29;20095;-92
2021/06/09 04:29:49;;;;;;;22.33;14.38;;;17.70;94.40;;;;;;4934933;29;20024;-92
2021/06/09 04:32:15;;;;;;;26.85;19.20;;;17.60;94.40;;;;;;4935604;29;20031;-91
2021/06/09 04:34:49;;;;;;;26.42;16.67;;;17.60;94.40;;;;;;4934515;29;20122;-91
2021/06/09 04:37:18;;;;;;;21.80;14.87;;;17.60;94.50;;;;;;4934565;29;20075;-90
2021/06/09 04:39:43;;;;;;;23.42;15.20;;;17.70;94.70;;;;;;4931443;29;20559;-90
2021/06/09 04:42:10;;;;;;;22.83;14.90;;;17.80;94.70;;;;;;4952150;28;20019;-92
2021/06/09 04:44:39;;;;;;;25.70;15.82;;;17.80;94.50;;;;;;4950734;29;20064;-91
2021/06/09 04:47:05;;;;;;;23.88;16.95;;;17.90;94.60;;;;;;4932770;29;20027;-91
2021/06/09 04:49:41;;;;;;;22.88;15.52;;;17.80;94.70;;;;;;4936064;29;20093;-91
2021/06/09 04:52:08;;;;;;;23.90;15.25;;;17.90;94.60;;;;;;4929840;29;20030;-91
2021/06/09 04:54:35;;;;;;;23.83;15.70;;;17.90;94.60;;;;;;4934219;29;20032;-91
2021/06/09 04:57:03;;;;;;;27.42;16.92;;;17.90;94.60;;;;;;4934388;29;20465;-91
2021/06/09 04:59:28;;;;;;;26.38;16.65;;;17.90;94.60;;;;;;4935252;29;20035;-91
2021/06/09 05:01:54;;;;;;;21.52;15.98;;;18.00;94.60;;;;;;4937952;29;20392;-91
2021/06/09 05:04:20;;;;;;;21.40;14.73;;;18.00;94.70;;;;;;4938636;29;20119;-91
2021/06/09 05:06:46;;;;;;;22.77;15.02;;;18.00;94.60;;;;;;4943760;29;20043;-90
2021/06/09 05:09:12;;;;;;;23.63;15.45;;;18.10;94.50;;;;;;4937594;29;20027;-91
2021/06/09 05:11:40;;;;;;;26.38;15.73;;;18.10;94.60;;;;;;4937251;29;20532;-91
2021/06/09 05:14:13;;;;;;;23.42;16.38;;;18.10;94.70;;;;;;4937538;29;20023;-91
2021/06/09 05:19:52;;;;;;;;;;;;;;;;;;;;;
2021/06/09 05:26:57;;;;;;;;;;;;;;;;;;;;;
2021/06/09 05:33:26;;;;;;;21.52;14.32;;;18.30;94.70;;;;;;4931802;29;20362;-87
2021/06/09 05:35:53;;;;;;;20.20;13.80;;;18.30;94.60;;;;;;4943808;29;20042;-90
2021/06/09 05:38:21;;;;;;;19.52;15.27;;;18.50;94.80;;;;;;4934991;29;20107;-90
2021/06/09 05:40:47;;;;;;;19.10;14.15;;;18.50;94.80;;;;;;4949605;29;20035;-89
2021/06/09 05:43:18;;;;;;;19.83;14.55;;;18.50;94.70;;;;;;4933612;29;20479;-90
2021/06/09 05:45:47;;;;;;;21.02;15.02;;;18.60;94.80;;;;;;4936491;29;20035;-90
2021/06/09 05:48:12;;;;;;;19.85;14.63;;;18.70;94.90;;;;;;4951069;29;20027;-90
2021/06/09 05:50:38;;;;;;;20.20;13.45;;;18.80;94.80;;;;;;4939991;29;20027;-90
2021/06/09 05:53:04;;;;;;;19.25;13.60;;;18.90;94.80;;;;;;4939907;29;20040;-88
2021/06/09 05:55:32;;;;;;;19.60;13.27;;;19.00;94.90;;;;;;4944452;29;20396;-87
2021/06/09 05:58:03;;;;;;;18.15;13.35;;;19.00;94.90;;;;;;4939083;29;20043;-86
2021/06/09 06:00:32;;;;;;;19.80;13.55;;;19.20;95.00;;;;;;4953784;29;20067;-87
2021/06/09 06:03:02;;;;;;;17.58;12.48;;;19.30;94.80;;;;;;4937843;29;20055;-86
2021/06/09 06:05:28;;;;;;;17.90;12.02;;;19.40;95.00;;;;;;4957695;29;20472;-87
2021/06/09 06:07:53;;;;;;;18.02;12.48;;;19.50;95.00;;;;;;4956643;28;20042;-85
2021/06/09 06:10:22;;;;;;;17.98;11.95;;;19.60;94.90;;;;;;4957486;29;20027;-86
2021/06/09 06:12:58;;;;;;;16.00;11.45;;;19.80;95.00;;;;;;4936655;29;20472;-86
2021/06/09 06:15:27;;;;;;;16.35;12.25;;;19.90;94.90;;;;;;4941960;29;20023;-85
2021/06/09 06:18:42;;;;;;;;;;;;;;;;;;;;;
2021/06/09 06:21:33;;;;;;;18.83;12.98;;;20.20;94.80;;;;;;4957234;28;20472;-86
2021/06/09 06:24:16;;;;;;;17.45;12.82;;;20.30;94.80;;;;;;4938494;29;20031;-87
2021/06/09 06:26:49;;;;;;;20.65;12.80;;;20.30;94.70;;;;;;4938601;29;20027;-87
2021/06/09 06:29:15;;;;;;;18.50;13.40;;;20.30;94.60;;;;;;4944388;28;20039;-84
2021/06/09 06:31:41;;;;;;;19.70;14.10;;;20.50;94.80;;;;;;4956685;28;20031;-85
2021/06/09 06:34:08;;;;;;;20.17;13.40;;;20.50;94.70;;;;;;4939469;29;20038;-85
2021/06/09 06:36:37;;;;;;;19.00;13.85;;;20.60;94.90;;;;;;4955652;28;20023;-85
2021/06/09 06:39:07;;;;;;;21.33;13.80;;;20.60;94.40;;;;;;4956607;29;20024;-85
2021/06/09 06:41:37;;;;;;;20.48;13.98;;;20.70;94.50;;;;;;4941894;29;20032;-85
2021/06/09 06:44:03;;;;;;;21.08;14.50;;;20.80;94.80;;;;;;4957135;29;20047;-85
2021/06/09 06:46:29;;;;;;;20.63;15.35;;;20.80;94.50;;;;;;4957900;28;20019;-85
2021/06/09 06:48:55;;;;;;;19.77;13.73;;;20.90;94.50;;;;;;4939394;29;20023;-85
2021/06/09 06:51:23;;;;;;;24.45;17.05;;;21.00;94.80;;;;;;4956302;29;20030;-85
2021/06/09 06:53:51;;;;;;;28.65;16.60;;;21.10;94.50;;;;;;4955700;28;20042;-84
2021/06/09 06:56:18;;;;;;;25.40;16.83;;;21.20;94.60;;;;;;4939664;29;20110;-85
2021/06/09 06:58:49;;;;;;;21.10;16.38;;;21.30;94.50;;;;;;4938952;29;20387;-86
2021/06/09 07:01:21;;;;;;;24.10;16.95;;;21.40;94.60;;;;;;4939665;28;20384;-85
2021/06/09 07:03:47;;;;;;;18.65;14.25;;;21.40;94.60;;;;;;4960116;28;20043;-84
2021/06/09 07:06:13;;;;;;;21.50;15.45;;;21.50;94.40;;;;;;4939010;29;20118;-83
2021/06/09 07:08:40;;;;;;;26.05;15.15;;;21.60;94.50;;;;;;4958622;28;20038;-84
2021/06/09 07:11:12;;;;;;;20.10;14.07;;;21.70;94.50;;;;;;4940271;28;20494;-82
2021/06/09 07:13:38;;;;;;;20.95;14.90;;;21.80;94.70;;;;;;4960339;28;20031;-83
2021/06/09 07:16:06;;;;;;;23.02;14.27;;;21.90;94.50;;;;;;4958404;29;20015;-82
2021/06/09 07:18:34;;;;;;;36.60;17.85;;;22.00;94.60;;;;;;4955881;29;20035;-83
2021/06/09 07:21:00;;;;;;;118.25;28.50;;;22.00;94.10;;;;;;4956328;29;20527;-83
2021/06/09 07:23:25;;;;;;;19.90;14.43;;;22.10;94.10;;;;;;4938796;29;20381;-83
2021/06/09 07:25:52;;;;;;;22.88;13.55;;;22.00;94.30;;;;;;4955942;29;20043;-84
2021/06/09 07:28:20;;;;;;;19.02;14.60;;;22.10;94.50;;;;;;4956034;29;20030;-84
2021/06/09 07:30:49;;;;;;;19.13;14.38;;;22.20;94.40;;;;;;4938627;29;20028;-84
2021/06/09 07:33:15;;;;;;;18.48;14.02;;;22.30;94.40;;;;;;4939301;29;20480;-84
2021/06/09 07:35:41;;;;;;;20.25;13.57;;;22.40;94.50;;;;;;4955911;29;20034;-85
2021/06/09 07:38:30;;;;;;;18.80;13.82;;;22.60;94.10;;;;;;4955853;29;20027;-84
2021/06/09 07:41:04;;;;;;;18.27;14.45;;;22.50;93.90;;;;;;4951347;29;20487;-84
2021/06/09 07:43:39;;;;;;;19.50;14.13;;;22.50;94.10;;;;;;4938290;29;20020;-83
2021/06/09 07:46:11;;;;;;;19.38;14.25;;;22.60;94.20;;;;;;4955564;29;20058;-84
2021/06/09 07:48:39;;;;;;;20.65;14.20;;;22.60;93.70;;;;;;4938585;29;20042;-85
2021/06/09 07:51:13;;;;;;;18.92;14.73;;;22.50;93.80;;;;;;4954221;28;20031;-85
2021/06/09 07:53:39;;;;;;;20.05;14.18;;;22.50;93.60;;;;;;4954233;28;20077;-85
2021/06/09 07:56:13;;;;;;;20.40;16.63;;;22.40;93.60;;;;;;4938053;29;20435;-84
2021/06/09 07:58:41;;;;;;;19.08;13.63;;;22.50;93.80;;;;;;4954319;29;20027;-84
2021/06/09 08:01:09;;;;;;;17.90;13.27;;;22.60;94.00;;;;;;4955224;29;20023;-84
2021/06/09 08:03:37;;;;;;;22.92;15.20;;;22.60;94.20;;;;;;4949556;29;20078;-85
2021/06/09 08:06:04;;;;;;;19.02;14.30;;;22.60;93.50;;;;;;4955178;29;20034;-85
2021/06/09 08:08:31;;;;;;;19.17;13.45;;;22.70;93.70;;;;;;4938520;29;20055;-84
2021/06/09 08:10:57;;;;;;;20.55;14.60;;;22.70;93.90;;;;;;4956198;28;20439;-83
2021/06/09 08:13:23;;;;;;;19.80;15.13;;;22.90;93.90;;;;;;4967179;28;20134;-83
2021/06/09 08:15:50;;;;;;;20.25;14.77;;;23.00;94.30;;;;;;4955164;29;20106;-84
2021/06/09 08:18:16;;;;;;;19.00;12.73;;;23.10;94.20;;;;;;4954741;29;20035;-83
2021/06/09 08:21:12;;;;;;;18.27;14.05;;;23.40;94.00;;;;;;4955087;29;20388;-84
2021/06/09 08:23:40;;;;;;;19.38;12.98;;;23.40;93.60;;;;;;4950623;29;20019;-84
2021/06/09 08:26:05;;;;;;;18.52;13.48;;;23.50;93.80;;;;;;4938130;29;20078;-84
2021/06/09 08:28:35;;;;;;;18.10;12.90;;;23.50;93.70;;;;;;4954974;29;20023;-84
2021/06/09 08:31:05;;;;;;;17.90;13.98;;;23.60;93.70;;;;;;4954743;29;20026;-83
2021/06/09 08:33:32;;;;;;;18.35;12.63;;;23.60;93.70;;;;;;4954498;29;20067;-83
2021/06/09 08:35:58;;;;;;;21.58;11.70;;;23.70;93.80;;;;;;4953937;28;20023;-83
2021/06/09 08:38:24;;;;;;;16.08;11.98;;;23.80;94.00;;;;;;4954625;29;20031;-84
2021/06/09 08:40:50;;;;;;;18.33;12.25;;;23.90;93.50;;;;;;4954991;28;20027;-84
2021/06/09 08:43:17;;;;;;;15.20;10.38;;;23.90;93.50;;;;;;4954837;28;20480;-83
2021/06/09 08:45:44;;;;;;;15.50;10.05;;;23.90;93.70;;;;;;4954551;29;20114;-83
2021/06/09 08:48:10;;;;;;;15.15;10.48;;;23.90;93.20;;;;;;4954493;29;20033;-83
2021/06/09 08:50:36;;;;;;;15.15;9.73;;;23.90;93.30;;;;;;4954114;28;20043;-83
2021/06/09 08:53:06;;;;;;;13.63;10.27;;;24.00;93.80;;;;;;4947377;28;20077;-83
2021/06/09 08:55:34;;;;;;;13.40;8.43;;;24.10;93.40;;;;;;4955466;28;20460;-83
2021/06/09 08:58:03;;;;;;;15.18;8.52;;;24.20;93.60;;;;;;4937463;29;20046;-84
2021/06/09 09:00:32;;;;;;;14.38;8.70;;;24.30;93.30;;;;;;4937156;29;20016;-85
2021/06/09 09:02:59;;;;;;;11.73;8.05;;;24.50;93.80;;;;;;4952818;28;20027;-85
2021/06/09 09:05:26;;;;;;;13.75;7.65;;;24.60;93.70;;;;;;4937476;29;20574;-83
2021/06/09 09:07:52;;;;;;;11.55;7.57;;;24.80;93.70;;;;;;4952815;28;20578;-86
2021/06/09 09:10:19;;;;;;;10.80;6.93;;;25.00;93.60;;;;;;4954414;29;20023;-82
2021/06/09 09:12:47;;;;;;;13.15;7.63;;;25.10;93.80;;;;;;4953666;29;20043;-84
2021/06/09 09:15:16;;;;;;;11.38;6.90;;;25.40;94.10;;;;;;4936813;29;20436;-84
2021/06/09 09:18:04;;;;;;;11.30;7.05;;;25.60;93.50;;;;;;4954443;29;20019;-84
2021/06/09 09:20:33;;;;;;;10.43;6.57;;;25.80;93.80;;;;;;4950843;29;20491;-84
2021/06/09 09:23:16;;;;;;;11.38;6.18;;;26.00;93.20;;;;;;4957784;29;20147;-83
2021/06/09 09:25:42;;;;;;;12.10;7.20;;;26.00;93.00;;;;;;4956724;29;20118;-83
2021/06/09 09:28:10;;;;;;;10.35;6.57;;;26.10;93.30;;;;;;4940837;29;20158;-83
2021/06/09 09:30:45;;;;;;;9.15;5.35;;;26.20;93.00;;;;;;4957249;28;20031;-82
2021/06/09 09:33:20;;;;;;;11.10;5.93;;;26.20;92.90;;;;;;4955061;28;20039;-81
2021/06/09 09:35:47;;;;;;;9.50;5.78;;;26.30;92.70;;;;;;4952846;29;20020;-82
2021/06/09 09:38:37;;;;;;;10.35;5.32;;;26.20;92.90;;;;;;4957601;28;20039;-82
2021/06/09 09:41:13;;;;;;;8.48;4.80;;;26.40;93.20;;;;;;4957077;28;20491;-82
2021/06/09 09:43:55;;;;;;;7.75;3.97;;;26.60;93.20;;;;;;4956637;28;20538;-82
2021/06/09 09:46:23;;;;;;;9.23;3.17;;;26.60;92.60;;;;;;4957956;29;20027;-80
2021/06/09 09:48:59;;;;;;;6.22;3.42;;;26.60;92.20;;;;;;4958443;29;20025;-82
2021/06/09 09:51:26;;;;;;;7.50;3.72;;;26.50;92.40;;;;;;4957415;29;20027;-83
2021/06/09 09:54:01;;;;;;;8.25;3.33;;;26.50;92.50;;;;;;4956682;28;20047;-83
2021/06/09 09:56:28;;;;;;;5.65;3.00;;;26.60;93.00;;;;;;4957710;29;20118;-83
2021/06/09 09:59:04;;;;;;;7.70;3.03;;;26.90;93.30;;;;;;4944328;29;20114;-83
2021/06/09 10:01:33;;;;;;;5.97;2.83;;;27.10;93.10;;;;;;4957402;28;20118;-83
2021/06/09 10:04:01;;;;;;;5.63;2.78;;;27.30;92.90;;;;;;4956442;29;20042;-83
2021/06/09 10:06:34;;;;;;;5.82;2.67;;;27.40;92.40;;;;;;4957250;29;20030;-83
2021/06/09 10:09:09;;;;;;;5.78;2.45;;;27.40;92.30;;;;;;4962709;28;20055;-84
2021/06/09 10:11:39;;;;;;;6.40;2.80;;;27.40;92.20;;;;;;4955693;28;20026;-85
2021/06/09 10:14:23;;;;;;;13.38;3.47;;;27.50;92.40;;;;;;4955116;28;20102;-83
2021/06/09 10:17:15;;;;;;;11.35;3.15;;;27.80;92.80;;;;;;4956687;28;20383;-83
2021/06/09 10:19:49;;;;;;;358.75;45.17;;;28.00;93.20;;;;;;4954767;29;20484;-82
2021/06/09 10:22:37;;;;;;;11.35;2.80;;;28.10;92.10;;;;;;4940445;29;20027;-83
2021/06/09 10:25:13;;;;;;;5.20;2.10;;;28.20;91.30;;;;;;4952409;29;20039;-83
2021/06/09 10:27:48;;;;;;;3.65;2.00;;;28.00;92.00;;;;;;4924164;29;20035;-84
2021/06/09 10:30:17;;;;;;;1.55;1.45;;;28.10;91.90;;;;;;4956842;28;20023;-83
2021/06/09 10:32:55;;;;;;;2.30;1.50;;;28.10;91.70;;;;;;4957312;29;20402;-83
2021/06/09 10:35:24;;;;;;;1.85;1.52;;;28.00;91.20;;;;;;4951494;29;20468;-83
2021/06/09 10:37:52;;;;;;;2.17;1.60;;;27.90;91.30;;;;;;4957022;29;20400;-82
2021/06/09 10:40:19;;;;;;;2.40;1.80;;;27.90;91.30;;;;;;4957692;28;20134;-83
2021/06/09 10:42:48;;;;;;;2.47;1.80;;;28.00;91.60;;;;;;4950404;28;20031;-83
2021/06/09 10:45:15;;;;;;;2.00;1.80;;;28.20;92.20;;;;;;4956703;29;20032;-85
2021/06/09 10:47:43;;;;;;;2.13;1.83;;;28.50;92.10;;;;;;4940067;29;20094;-85
2021/06/09 10:50:17;;;;;;;2.55;1.83;;;28.90;92.30;;;;;;4940181;29;20027;-86
2021/06/09 10:52:44;;;;;;;2.78;1.70;;;29.10;91.80;;;;;;4956490;29;20027;-85
2021/06/09 10:55:10;;;;;;;2.40;1.80;;;29.10;91.50;;;;;;4941601;28;20058;-85
2021/06/09 10:57:37;;;;;;;2.25;1.70;;;29.10;91.50;;;;;;4964178;28;20078;-86
2021/06/09 11:00:12;;;;;;;2.10;1.85;;;29.10;91.10;;;;;;4939112;29;20448;-86
2021/06/09 11:02:39;;;;;;;2.05;1.80;;;29.10;90.80;;;;;;4956610;29;20019;-85
2021/06/09 11:05:09;;;;;;;2.47;1.70;;;29.00;91.00;;;;;;4956051;28;20039;-85
2021/06/09 11:07:40;;;;;;;2.00;1.75;;;29.10;91.30;;;;;;4939757;28;20051;-87
2021/06/09 11:10:13;;;;;;;4.40;1.90;;;29.20;90.50;;;;;;4956758;29;20042;-86
2021/06/09 11:12:44;;;;;;;3.75;2.00;;;29.10;90.40;;;;;;4955285;29;20030;-86
2021/06/09 11:15:31;;;;;;;4.20;2.38;;;29.10;90.20;;;;;;4939186;29;20031;-86
2021/06/09 11:17:58;;;;;;;3.95;2.00;;;29.10;90.10;;;;;;4956111;29;20058;-85
2021/06/09 11:20:37;;;;;;;2.67;1.85;;;29.00;90.10;;;;;;4956124;29;20055;-85
2021/06/09 11:23:10;;;;;;;3.17;1.90;;;29.00;90.90;;;;;;4958199;28;20103;-85
2021/06/09 11:25:46;;;;;;;3.03;2.03;;;29.20;90.90;;;;;;4955747;29;20019;-92
2021/06/09 11:28:22;;;;;;;6.18;3.00;;;29.90;93.00;;;;;;4956520;29;20023;-93
2021/06/09 11:30:53;;;;;;;3.05;1.98;;;30.80;92.80;;;;;;4939158;29;20023;-92
2021/06/09 11:33:55;;;;;;;2.00;1.80;;;31.80;93.40;;;;;;4939225;29;20067;-93
2021/06/09 11:36:20;;;;;;;6.95;2.20;;;32.60;93.10;;;;;;4926290;29;20043;-92
2021/06/09 11:38:51;;;;;;;38.28;6.32;;;33.30;92.50;;;;;;4939013;29;20027;-92
2021/06/09 11:41:18;;;;;;;25.33;6.10;;;33.90;92.00;;;;;;4944591;29;20034;-92
2021/06/09 11:43:52;;;;;;;40.72;6.10;;;34.40;91.50;;;;;;4938379;29;20023;-93
2021/06/09 11:46:25;;;;;;;4.22;2.10;;;34.60;91.10;;;;;;4939151;29;20019;-92
2021/06/09 11:49:12;;;;;;;3.33;2.28;;;35.10;90.60;;;;;;4956182;29;20023;-92
2021/06/09 11:51:41;;;;;;;4.60;2.30;;;35.50;91.80;;;;;;4938589;29;20031;-95
2021/06/09 11:54:17;;;;;;;3.53;2.08;;;36.10;91.90;;;;;;4938929;29;20031;-93
2021/06/09 11:56:49;;;;;;;2.38;1.90;;;36.90;90.90;;;;;;4939361;29;20035;-94
2021/06/09 11:59:36;;;;;;;2.83;1.80;;;37.50;90.80;;;;;;4939136;29;20467;-93
2021/06/09 12:02:20;;;;;;;27.20;4.40;;;38.00;90.60;;;;;;4943412;29;20126;-91
2021/06/09 12:04:46;;;;;;;;;;;38.30;90.10;;;;;;4955854;29;21012;-92
2021/06/09 12:07:30;;;;;;;119.57;14.85;;;38.70;91.00;;;;;;4938811;29;19913;-91
2021/06/09 12:10:08;;;;;;;3.78;2.20;;;38.70;88.50;;;;;;4948539;28;20023;-91
2021/06/09 12:12:35;;;;;;;3.08;2.10;;;39.00;88.20;;;;;;4953917;28;20047;-91
2021/06/09 12:15:12;;;;;;;5.85;2.30;;;39.60;89.80;;;;;;4938517;29;20051;-92
2021/06/09 12:17:45;;;;;;;4.03;2.53;;;40.30;90.00;;;;;;4964483;28;20065;-90
2021/06/09 12:20:41;;;;;;;;;;;;;;;;;;;;;
2021/06/09 12:23:13;;;;;;;2.97;2.20;;;41.50;86.10;;;;;;4955537;28;20035;-93
2021/06/09 12:25:43;;;;;;;4.90;2.50;;;42.10;86.70;;;;;;4938921;29;20042;-95
2021/06/09 12:28:59;;;;;;;3.15;2.42;;;42.70;84.80;;;;;;4939533;29;20019;-94
2021/06/09 12:31:32;;;;;;;4.40;2.40;;;43.30;87.90;;;;;;4895668;29;20023;-93
2021/06/09 12:34:08;;;;;;;;;;;;;;;;;;;;;
2021/06/09 12:36:37;;;;;;;3.30;2.40;;;44.30;82.80;;;;;;4955517;29;20031;-92
2021/06/09 12:39:04;;;;;;;2.83;2.20;;;44.70;82.50;;;;;;4938570;29;20332;-95
2021/06/09 12:41:31;;;;;;;4.57;2.88;;;45.00;81.80;;;;;;4943645;29;20035;-93
2021/06/09 12:44:53;;;;;;;3.05;2.40;;;45.30;82.60;;;;;;4939212;28;20027;-93
2021/06/09 12:47:34;;;;;;;4.13;2.22;;;45.40;82.80;;;;;;4929810;28;20027;-93
2021/06/09 12:50:38;;;;;;;3.67;2.30;;;45.20;78.80;;;;;;4953939;29;20026;-91
2021/06/09 12:54:15;;;;;;;;;;;;;;;;;;;;;
2021/06/09 12:56:49;;;;;;;6.25;2.70;;;45.40;79.60;;;;;;4939798;29;20042;-91
2021/06/09 13:00:09;;;;;;;3.25;2.25;;;45.50;78.30;;;;;;4947480;28;20066;-91
2021/06/09 13:02:35;;;;;;;4.05;2.30;;;45.60;79.70;;;;;;4940594;28;20562;-94
2021/06/09 13:05:14;;;;;;;3.25;2.42;;;46.20;79.90;;;;;;4940437;29;20090;-96
2021/06/09 13:07:44;;;;;;;3.90;2.33;;;46.60;79.10;;;;;;4939285;29;20024;-95
2021/06/09 13:10:24;;;;;;;3.25;2.40;;;47.00;80.40;;;;;;4938048;28;20082;-95
2021/06/09 13:12:52;;;;;;;3.15;2.30;;;47.20;75.40;;;;;;4935499;29;20032;-93
2021/06/09 13:19:30;;;;;;;2.65;2.40;;;48.50;77.60;;;;;;4933664;29;20047;-95
2021/06/09 13:22:22;;;;;;;3.28;2.53;;;48.80;73.30;;;;;;4933598;29;21241;-94
2021/06/09 13:24:47;;;;;;;3.25;2.50;;;48.60;72.70;;;;;;4935772;29;20425;-92